Portada
METAR-TAF:

METAR-TAF

Aeroports :

Rajahmundry, Índia

latitud: 17-06-37N, longitud: 81-49-06E, altitud: 46 m

Observació

L'informe es va fer fa 11 minuts, a les 07:00 UTC
Vent 9 kt del Sud/Sud-Oest
Temperatura 33°C
Humitat 59%
Pressió 1011 hPa
Visibilitat: 6000 m
Núvols disperses a una alçada de 2000 ft

METAR: VORY 080700Z 21009KT 6000 SCT020 33/24 Q1011 NOSIG

Hora: 12:41 (07:11 UTC)

Pronòstic

L'informe es va fer fa 2 hores i 11 minuts, a les 05:00 UTC
Pronòstic vàlid del 08 a les 06 UTC al 08 a les 15 UTC
Vent 8 kt del Sud/Sud-Oest
Visibilitat: 6000 m
Núvols disperses a una alçada de 2000 ft
Núvols disperses a una alçada de 2500 ft
Temporalment
l' 08 a les 09 UTC al 08 a les 15 UTC
Escasses núvols a una alçada de 3000 ft, Cumulonimbus.

TAF: VORY 080500Z 0806/0815 20008KT 6000 SCT020 SCT025 TEMPO 0809/0815 FEW030CB

Observacions i pronòstics meteorològics de més de 4000 aeroports (METAR i TAF).

Les estacions disponibles són els punts grocs i vermells al mapa.

Posi el ratolí al punt desitjat per veure el nom de l'estació.

Feu clic per veure les observacions i els pronòstics meteorològics.

Per canviar el mapa: feu clic els botons verds amb una creu de color negre per apropar; al botó verd amb un guió per allunyar la imatge; o en les fletxes verdes per a mapes adjacents.


METAR-TAF: